sensor_id;sensor_type;location;lat;lon;timestamp;pressure;altitude;pressure_sealevel;temperature;humidity
65659;BME280;60181;53.258;6.932;2023-02-19T00:03:58;101592.07;;;14.08;65.59
65659;BME280;60181;53.258;6.932;2023-02-19T00:08:00;101595.50;;;14.07;65.63
65659;BME280;60181;53.258;6.932;2023-02-19T00:12:04;101597.39;;;14.07;65.58
65659;BME280;60181;53.258;6.932;2023-02-19T00:16:09;101596.73;;;14.07;65.68
65659;BME280;60181;53.258;6.932;2023-02-19T00:20:12;101596.37;;;14.06;65.65
65659;BME280;60181;53.258;6.932;2023-02-19T00:24:16;101596.37;;;14.05;65.77
65659;BME280;60181;53.258;6.932;2023-02-19T00:28:20;101597.37;;;14.05;65.77
65659;BME280;60181;53.258;6.932;2023-02-19T00:32:24;101598.11;;;14.06;65.76
65659;BME280;60181;53.258;6.932;2023-02-19T00:36:28;101599.27;;;14.06;65.91
65659;BME280;60181;53.258;6.932;2023-02-19T00:40:32;101601.78;;;14.05;65.57
65659;BME280;60181;53.258;6.932;2023-02-19T00:44:36;101604.58;;;14.05;65.41
65659;BME280;60181;53.258;6.932;2023-02-19T00:48:40;101605.08;;;14.02;64.85
65659;BME280;60181;53.258;6.932;2023-02-19T00:52:44;101606.14;;;13.98;65.33
65659;BME280;60181;53.258;6.932;2023-02-19T00:56:48;101605.10;;;13.95;64.85
65659;BME280;60181;53.258;6.932;2023-02-19T01:00:52;101604.47;;;13.91;65.08
65659;BME280;60181;53.258;6.932;2023-02-19T01:04:56;101605.70;;;13.88;65.01
65659;BME280;60181;53.258;6.932;2023-02-19T01:09:00;101610.28;;;13.84;64.63
65659;BME280;60181;53.258;6.932;2023-02-19T01:13:04;101612.16;;;13.77;63.83
65659;BME280;60181;53.258;6.932;2023-02-19T01:17:08;101613.50;;;13.69;64.02
65659;BME280;60181;53.258;6.932;2023-02-19T01:21:13;101615.40;;;13.63;63.70
65659;BME280;60181;53.258;6.932;2023-02-19T01:25:16;101615.85;;;13.59;63.46
65659;BME280;60181;53.258;6.932;2023-02-19T01:29:20;101616.05;;;13.55;63.42
65659;BME280;60181;53.258;6.932;2023-02-19T01:33:24;101618.30;;;13.52;63.11
65659;BME280;60181;53.258;6.932;2023-02-19T01:37:29;101623.27;;;13.48;63.20
65659;BME280;60181;53.258;6.932;2023-02-19T01:41:36;101629.15;;;13.44;63.03
65659;BME280;60181;53.258;6.932;2023-02-19T01:45:37;101633.79;;;13.40;62.96
65659;BME280;60181;53.258;6.932;2023-02-19T01:49:41;101637.56;;;13.36;63.09
65659;BME280;60181;53.258;6.932;2023-02-19T01:53:45;101639.14;;;13.34;62.94
65659;BME280;60181;53.258;6.932;2023-02-19T01:57:49;101639.71;;;13.34;62.68
65659;BME280;60181;53.258;6.932;2023-02-19T02:01:52;101640.66;;;13.33;62.59
65659;BME280;60181;53.258;6.932;2023-02-19T02:05:58;101643.30;;;13.33;62.48
65659;BME280;60181;53.258;6.932;2023-02-19T02:10:00;101645.64;;;13.34;62.48
65659;BME280;60181;53.258;6.932;2023-02-19T02:14:04;101649.42;;;13.35;62.35
65659;BME280;60181;53.258;6.932;2023-02-19T02:18:18;101651.89;;;13.35;62.55
65659;BME280;60181;53.258;6.932;2023-02-19T02:22:17;101656.71;;;13.34;62.18
65659;BME280;60181;53.258;6.932;2023-02-19T02:26:24;101659.56;;;13.32;62.02
65659;BME280;60181;53.258;6.932;2023-02-19T02:34:26;101668.03;;;13.33;61.91
65659;BME280;60181;53.258;6.932;2023-02-19T02:38:29;101670.95;;;13.33;61.76
65659;BME280;60181;53.258;6.932;2023-02-19T02:42:32;101672.88;;;13.34;61.63
65659;BME280;60181;53.258;6.932;2023-02-19T02:46:37;101675.75;;;13.34;61.49
65659;BME280;60181;53.258;6.932;2023-02-19T02:50:41;101680.25;;;13.33;61.46
65659;BME280;60181;53.258;6.932;2023-02-19T02:54:44;101685.10;;;13.33;61.33
65659;BME280;60181;53.258;6.932;2023-02-19T02:58:48;101689.95;;;13.33;61.33
65659;BME280;60181;53.258;6.932;2023-02-19T03:02:52;101695.35;;;13.33;61.17
65659;BME280;60181;53.258;6.932;2023-02-19T03:06:56;101701.39;;;13.33;60.92
65659;BME280;60181;53.258;6.932;2023-02-19T03:11:01;101708.59;;;13.32;61.13
65659;BME280;60181;53.258;6.932;2023-02-19T03:15:05;101716.19;;;13.30;61.06
65659;BME280;60181;53.258;6.932;2023-02-19T03:19:09;101723.22;;;13.28;60.50
65659;BME280;60181;53.258;6.932;2023-02-19T03:23:12;101729.81;;;13.27;60.42
65659;BME280;60181;53.258;6.932;2023-02-19T03:27:16;101737.34;;;13.25;60.41
65659;BME280;60181;53.258;6.932;2023-02-19T03:31:21;101745.70;;;13.24;60.64
65659;BME280;60181;53.258;6.932;2023-02-19T03:35:25;101754.24;;;13.23;60.58
65659;BME280;60181;53.258;6.932;2023-02-19T03:39:28;101762.17;;;13.22;60.47
65659;BME280;60181;53.258;6.932;2023-02-19T03:43:41;101769.00;;;13.22;60.47
65659;BME280;60181;53.258;6.932;2023-02-19T03:47:40;101774.40;;;13.21;60.47
65659;BME280;60181;53.258;6.932;2023-02-19T03:51:44;101781.14;;;13.21;60.45
65659;BME280;60181;53.258;6.932;2023-02-19T03:55:51;101788.56;;;13.19;60.23
65659;BME280;60181;53.258;6.932;2023-02-19T03:59:50;101795.76;;;13.16;59.90
65659;BME280;60181;53.258;6.932;2023-02-19T04:04:03;101803.76;;;13.14;59.81
65659;BME280;60181;53.258;6.932;2023-02-19T04:07:57;101812.36;;;13.12;59.58
65659;BME280;60181;53.258;6.932;2023-02-19T04:12:00;101822.52;;;13.11;59.74
65659;BME280;60181;53.258;6.932;2023-02-19T04:16:08;101832.68;;;13.10;59.68
65659;BME280;60181;53.258;6.932;2023-02-19T04:20:09;101840.37;;;13.09;59.56
65659;BME280;60181;53.258;6.932;2023-02-19T04:24:13;101847.33;;;13.08;59.78
65659;BME280;60181;53.258;6.932;2023-02-19T04:28:16;101853.91;;;13.05;59.86
65659;BME280;60181;53.258;6.932;2023-02-19T04:32:20;101862.14;;;13.03;59.68
65659;BME280;60181;53.258;6.932;2023-02-19T04:36:24;101872.39;;;13.00;59.99
65659;BME280;60181;53.258;6.932;2023-02-19T04:40:28;101881.40;;;12.99;59.85
65659;BME280;60181;53.258;6.932;2023-02-19T04:44:32;101888.84;;;12.97;59.64
65659;BME280;60181;53.258;6.932;2023-02-19T04:48:36;101894.69;;;12.96;59.70
65659;BME280;60181;53.258;6.932;2023-02-19T04:52:40;101901.81;;;12.95;59.50
65659;BME280;60181;53.258;6.932;2023-02-19T04:56:44;101909.20;;;12.94;59.50
65659;BME280;60181;53.258;6.932;2023-02-19T05:00:51;101916.89;;;12.93;59.45
65659;BME280;60181;53.258;6.932;2023-02-19T05:04:52;101924.30;;;12.91;58.73
65659;BME280;60181;53.258;6.932;2023-02-19T05:08:56;101931.30;;;12.89;58.74
65659;BME280;60181;53.258;6.932;2023-02-19T05:13:00;101937.83;;;12.88;58.74
65659;BME280;60181;53.258;6.932;2023-02-19T05:17:04;101942.89;;;12.87;58.66
65659;BME280;60181;53.258;6.932;2023-02-19T05:21:08;101948.32;;;12.86;58.52
65659;BME280;60181;53.258;6.932;2023-02-19T05:25:12;101954.02;;;12.90;58.22
65659;BME280;60181;53.258;6.932;2023-02-19T05:29:16;101960.06;;;12.90;58.67
65659;BME280;60181;53.258;6.932;2023-02-19T05:33:20;101965.41;;;12.91;58.68
65659;BME280;60181;53.258;6.932;2023-02-19T05:37:24;101972.86;;;12.96;58.39
65659;BME280;60181;53.258;6.932;2023-02-19T05:41:28;101981.16;;;12.97;59.05
65659;BME280;60181;53.258;6.932;2023-02-19T05:45:32;101989.67;;;12.95;59.26
65659;BME280;60181;53.258;6.932;2023-02-19T05:49:36;101999.21;;;12.93;59.40
65659;BME280;60181;53.258;6.932;2023-02-19T05:53:40;102008.42;;;12.91;59.54
65659;BME280;60181;53.258;6.932;2023-02-19T05:57:45;102017.14;;;12.89;59.47
65659;BME280;60181;53.258;6.932;2023-02-19T06:01:51;102023.47;;;12.89;59.32
65659;BME280;60181;53.258;6.932;2023-02-19T06:05:52;102031.29;;;12.89;59.33
65659;BME280;60181;53.258;6.932;2023-02-19T06:09:56;102038.73;;;12.90;59.16
65659;BME280;60181;53.258;6.932;2023-02-19T06:14:00;102048.11;;;12.90;59.39
65659;BME280;60181;53.258;6.932;2023-02-19T06:18:04;102057.44;;;12.89;59.48
65659;BME280;60181;53.258;6.932;2023-02-19T06:22:08;102066.61;;;12.88;59.50
65659;BME280;60181;53.258;6.932;2023-02-19T06:26:13;102076.97;;;12.88;59.49
65659;BME280;60181;53.258;6.932;2023-02-19T06:30:16;102087.00;;;12.89;59.00
65659;BME280;60181;53.258;6.932;2023-02-19T06:34:20;102097.13;;;12.95;59.62
65659;BME280;60181;53.258;6.932;2023-02-19T06:38:24;102106.45;;;13.08;59.22
65659;BME280;60181;53.258;6.932;2023-02-19T06:42:30;102113.44;;;13.18;59.59
65659;BME280;60181;53.258;6.932;2023-02-19T06:46:32;102120.73;;;13.25;60.54
65659;BME280;60181;53.258;6.932;2023-02-19T06:50:36;102125.13;;;13.29;60.86
65659;BME280;60181;53.258;6.932;2023-02-19T06:54:40;102130.61;;;13.33;60.69
65659;BME280;60181;53.258;6.932;2023-02-19T06:58:44;102137.61;;;13.35;60.87
65659;BME280;60181;53.258;6.932;2023-02-19T07:02:48;102146.34;;;13.38;61.13
65659;BME280;60181;53.258;6.932;2023-02-19T07:06:52;102155.60;;;13.39;61.37
65659;BME280;60181;53.258;6.932;2023-02-19T07:10:56;102165.34;;;13.41;61.46
65659;BME280;60181;53.258;6.932;2023-02-19T07:15:00;102175.09;;;13.42;61.61
65659;BME280;60181;53.258;6.932;2023-02-19T07:19:04;102182.54;;;13.44;61.92
65659;BME280;60181;53.258;6.932;2023-02-19T07:23:08;102186.95;;;13.45;61.94
65659;BME280;60181;53.258;6.932;2023-02-19T07:27:12;102191.80;;;13.47;62.10
65659;BME280;60181;53.258;6.932;2023-02-19T07:31:16;102195.89;;;13.48;62.13
65659;BME280;60181;53.258;6.932;2023-02-19T07:35:20;102199.22;;;13.49;62.17
65659;BME280;60181;53.258;6.932;2023-02-19T07:39:24;102204.08;;;13.51;62.33
65659;BME280;60181;53.258;6.932;2023-02-19T07:43:28;102207.17;;;13.52;62.39
65659;BME280;60181;53.258;6.932;2023-02-19T07:47:32;102206.97;;;13.54;62.45
65659;BME280;60181;53.258;6.932;2023-02-19T07:51:36;102207.42;;;13.55;62.51
65659;BME280;60181;53.258;6.932;2023-02-19T07:55:39;102209.69;;;13.56;62.58
65659;BME280;60181;53.258;6.932;2023-02-19T07:59:44;102213.26;;;13.59;62.64
65659;BME280;60181;53.258;6.932;2023-02-19T08:03:47;102213.76;;;13.61;62.74
65659;BME280;60181;53.258;6.932;2023-02-19T08:07:51;102214.67;;;13.63;62.77
65659;BME280;60181;53.258;6.932;2023-02-19T08:11:55;102217.05;;;13.65;62.79
65659;BME280;60181;53.258;6.932;2023-02-19T08:20:04;102233.33;;;13.82;61.48
65659;BME280;60181;53.258;6.932;2023-02-19T08:24:07;102242.64;;;13.91;61.16
65659;BME280;60181;53.258;6.932;2023-02-19T08:28:11;102249.27;;;13.99;61.03
65659;BME280;60181;53.258;6.932;2023-02-19T08:32:15;102255.44;;;14.05;60.90
65659;BME280;60181;53.258;6.932;2023-02-19T08:36:19;102263.03;;;14.13;60.68
65659;BME280;60181;53.258;6.932;2023-02-19T08:40:24;102269.41;;;14.22;60.62
65659;BME280;60181;53.258;6.932;2023-02-19T08:44:27;102275.58;;;14.32;60.42
65659;BME280;60181;53.258;6.932;2023-02-19T08:48:32;102279.80;;;14.41;60.33
65659;BME280;60181;53.258;6.932;2023-02-19T08:52:35;102284.91;;;14.50;60.13
65659;BME280;60181;53.258;6.932;2023-02-19T08:56:39;102291.28;;;14.58;60.33
65659;BME280;60181;53.258;6.932;2023-02-19T09:00:43;102299.39;;;14.66;60.32
65659;BME280;60181;53.258;6.932;2023-02-19T09:04:47;102311.36;;;14.72;60.27
65659;BME280;60181;53.258;6.932;2023-02-19T09:08:51;102322.94;;;14.78;60.23
65659;BME280;60181;53.258;6.932;2023-02-19T09:12:55;102333.76;;;14.84;60.17
65659;BME280;60181;53.258;6.932;2023-02-19T09:17:00;102344.16;;;14.89;60.18
65659;BME280;60181;53.258;6.932;2023-02-19T09:21:04;102355.08;;;14.93;60.14
65659;BME280;60181;53.258;6.932;2023-02-19T09:25:07;102363.57;;;14.96;60.20
65659;BME280;60181;53.258;6.932;2023-02-19T09:29:11;102373.55;;;14.96;60.97
65659;BME280;60181;53.258;6.932;2023-02-19T09:33:15;102383.45;;;14.99;61.05
65659;BME280;60181;53.258;6.932;2023-02-19T09:37:19;102393.68;;;14.98;61.08
65659;BME280;60181;53.258;6.932;2023-02-19T09:41:30;102399.87;;;14.98;60.79
65659;BME280;60181;53.258;6.932;2023-02-19T09:45:27;102406.02;;;14.97;60.82
65659;BME280;60181;53.258;6.932;2023-02-19T09:49:32;102412.45;;;15.00;60.31
65659;BME280;60181;53.258;6.932;2023-02-19T09:53:39;102419.54;;;15.02;60.56
65659;BME280;60181;53.258;6.932;2023-02-19T09:57:39;102425.37;;;15.01;60.68
65659;BME280;60181;53.258;6.932;2023-02-19T10:01:43;102431.42;;;15.03;60.08
65659;BME280;60181;53.258;6.932;2023-02-19T10:05:47;102434.22;;;15.09;59.97
65659;BME280;60181;53.258;6.932;2023-02-19T10:09:56;102437.06;;;15.10;60.60
65659;BME280;60181;53.258;6.932;2023-02-19T10:14:05;102438.96;;;15.07;60.92
65659;BME280;60181;53.258;6.932;2023-02-19T10:17:59;102444.21;;;15.04;61.50
65659;BME280;60181;53.258;6.932;2023-02-19T10:22:03;102450.11;;;15.07;61.61
65659;BME280;60181;53.258;6.932;2023-02-19T10:26:07;102456.82;;;15.08;61.17
65659;BME280;60181;53.258;6.932;2023-02-19T10:30:15;102463.96;;;15.11;60.75
65659;BME280;60181;53.258;6.932;2023-02-19T10:34:19;102471.84;;;15.15;60.78
65659;BME280;60181;53.258;6.932;2023-02-19T10:38:20;102478.23;;;15.14;61.19
65659;BME280;60181;53.258;6.932;2023-02-19T10:42:23;102485.62;;;15.10;61.42
65659;BME280;60181;53.258;6.932;2023-02-19T10:46:31;102492.85;;;15.07;61.38
65659;BME280;60181;53.258;6.932;2023-02-19T10:50:33;102497.97;;;15.05;61.40
65659;BME280;60181;53.258;6.932;2023-02-19T10:54:35;102500.04;;;15.02;61.55
65659;BME280;60181;53.258;6.932;2023-02-19T10:58:40;102501.68;;;15.00;61.59
65659;BME280;60181;53.258;6.932;2023-02-19T11:02:43;102502.01;;;15.00;61.29
65659;BME280;60181;53.258;6.932;2023-02-19T11:06:47;102499.50;;;15.01;61.19
65659;BME280;60181;53.258;6.932;2023-02-19T11:10:51;102499.38;;;15.03;61.25
65659;BME280;60181;53.258;6.932;2023-02-19T11:14:55;102501.40;;;15.02;61.52
65659;BME280;60181;53.258;6.932;2023-02-19T11:18:59;102504.70;;;15.01;61.59
65659;BME280;60181;53.258;6.932;2023-02-19T11:23:09;102506.85;;;15.00;61.68
65659;BME280;60181;53.258;6.932;2023-02-19T11:27:13;102509.12;;;14.98;61.85
65659;BME280;60181;53.258;6.932;2023-02-19T11:31:21;102509.86;;;14.96;61.85
65659;BME280;60181;53.258;6.932;2023-02-19T11:35:17;102509.99;;;14.95;61.64
65659;BME280;60181;53.258;6.932;2023-02-19T11:39:20;102509.99;;;14.97;61.46
65659;BME280;60181;53.258;6.932;2023-02-19T11:51:40;102509.78;;;14.99;61.78
65659;BME280;60181;53.258;6.932;2023-02-19T11:55:46;102509.81;;;14.97;61.97
65659;BME280;60181;53.258;6.932;2023-02-19T11:59:45;102510.06;;;14.95;62.01
65659;BME280;60181;53.258;6.932;2023-02-19T12:08:01;102509.20;;;14.92;62.06
65659;BME280;60181;53.258;6.932;2023-02-19T12:16:01;102507.26;;;14.90;62.41
65659;BME280;60181;53.258;6.932;2023-02-19T12:24:19;102504.09;;;14.92;62.16
65659;BME280;60181;53.258;6.932;2023-02-19T12:32:16;102506.73;;;14.92;62.30
65659;BME280;60181;53.258;6.932;2023-02-19T12:36:21;102511.39;;;14.91;62.33
65659;BME280;60181;53.258;6.932;2023-02-19T12:44:25;102523.44;;;14.90;62.31
65659;BME280;60181;53.258;6.932;2023-02-19T12:48:46;102527.51;;;14.91;62.25
65659;BME280;60181;53.258;6.932;2023-02-19T12:52:32;102532.21;;;14.91;62.26
65659;BME280;60181;53.258;6.932;2023-02-19T12:56:38;102535.44;;;14.91;62.33
65659;BME280;60181;53.258;6.932;2023-02-19T13:00:48;102538.07;;;14.91;62.27
65659;BME280;60181;53.258;6.932;2023-02-19T13:08:51;102545.04;;;14.93;62.13
65659;BME280;60181;53.258;6.932;2023-02-19T13:12:51;102549.79;;;14.94;62.10
65659;BME280;60181;53.258;6.932;2023-02-19T13:17:14;102554.30;;;14.95;62.04
65659;BME280;60181;53.258;6.932;2023-02-19T13:20:59;102558.13;;;14.96;62.09
65659;BME280;60181;53.258;6.932;2023-02-19T13:25:03;102562.79;;;14.97;62.13
65659;BME280;60181;53.258;6.932;2023-02-19T13:33:20;102568.36;;;14.98;62.26
65659;BME280;60181;53.258;6.932;2023-02-19T13:37:15;102572.20;;;14.97;62.24
65659;BME280;60181;53.258;6.932;2023-02-19T13:41:26;102573.65;;;14.98;62.24
65659;BME280;60181;53.258;6.932;2023-02-19T13:45:30;102573.97;;;14.98;62.27
65659;BME280;60181;53.258;6.932;2023-02-19T13:57:35;102575.13;;;14.96;62.42
65659;BME280;60181;53.258;6.932;2023-02-19T14:05:56;102566.05;;;14.96;62.35
65659;BME280;60181;53.258;6.932;2023-02-19T14:09:47;102559.86;;;14.96;62.37
65659;BME280;60181;53.258;6.932;2023-02-19T14:13:54;102552.94;;;14.96;62.38
65659;BME280;60181;53.258;6.932;2023-02-19T14:17:55;102543.12;;;14.96;62.44
65659;BME280;60181;53.258;6.932;2023-02-19T14:21:59;102533.04;;;14.96;62.45
65659;BME280;60181;53.258;6.932;2023-02-19T14:26:03;102523.89;;;14.96;62.48
65659;BME280;60181;53.258;6.932;2023-02-19T14:30:09;102516.17;;;14.95;62.53
65659;BME280;60181;53.258;6.932;2023-02-19T14:34:18;102512.21;;;14.94;62.61
65659;BME280;60181;53.258;6.932;2023-02-19T14:38:17;102506.03;;;14.95;63.30
65659;BME280;60181;53.258;6.932;2023-02-19T14:42:21;102502.72;;;15.06;63.04
65659;BME280;60181;53.258;6.932;2023-02-19T14:46:26;102500.44;;;15.18;62.45
65659;BME280;60181;53.258;6.932;2023-02-19T14:50:28;102499.51;;;15.29;62.23
65659;BME280;60181;53.258;6.932;2023-02-19T14:54:40;102500.23;;;15.38;62.15
65659;BME280;60181;53.258;6.932;2023-02-19T14:58:35;102504.44;;;15.46;62.07
65659;BME280;60181;53.258;6.932;2023-02-19T15:02:41;102508.41;;;15.57;61.17
65659;BME280;60181;53.258;6.932;2023-02-19T15:06:43;102509.56;;;15.74;60.31
65659;BME280;60181;53.258;6.932;2023-02-19T15:10:47;102513.53;;;15.93;59.81
65659;BME280;60181;53.258;6.932;2023-02-19T15:14:54;102515.94;;;16.09;59.52
65659;BME280;60181;53.258;6.932;2023-02-19T15:18:55;102517.43;;;16.24;59.36
65659;BME280;60181;53.258;6.932;2023-02-19T15:22:59;102518.81;;;16.37;59.45
65659;BME280;60181;53.258;6.932;2023-02-19T15:27:03;102518.54;;;16.46;59.57
65659;BME280;60181;53.258;6.932;2023-02-19T15:31:11;102518.03;;;16.41;61.34
65659;BME280;60181;53.258;6.932;2023-02-19T15:35:16;102517.82;;;16.26;62.38
65659;BME280;60181;53.258;6.932;2023-02-19T15:39:19;102518.46;;;16.09;62.78
65659;BME280;60181;53.258;6.932;2023-02-19T15:43:27;102520.42;;;15.94;62.97
65659;BME280;60181;53.258;6.932;2023-02-19T15:47:25;102523.34;;;15.81;63.17
65659;BME280;60181;53.258;6.932;2023-02-19T15:51:33;102527.59;;;15.70;63.31
65659;BME280;60181;53.258;6.932;2023-02-19T15:55:35;102534.09;;;15.60;63.43
65659;BME280;60181;53.258;6.932;2023-02-19T15:59:39;102539.07;;;15.51;63.50
65659;BME280;60181;53.258;6.932;2023-02-19T16:03:39;102537.22;;;15.43;63.60
65659;BME280;60181;53.258;6.932;2023-02-19T16:07:43;102533.68;;;15.36;63.67
65659;BME280;60181;53.258;6.932;2023-02-19T16:11:51;102531.21;;;15.29;63.73
65659;BME280;60181;53.258;6.932;2023-02-19T16:15:54;102530.62;;;15.24;63.77
65659;BME280;60181;53.258;6.932;2023-02-19T16:19:58;102533.08;;;15.19;63.78
65659;BME280;60181;53.258;6.932;2023-02-19T16:24:00;102538.37;;;15.15;63.82
65659;BME280;60181;53.258;6.932;2023-02-19T16:28:12;102542.66;;;15.11;63.86
65659;BME280;60181;53.258;6.932;2023-02-19T16:32:12;102547.16;;;15.07;63.91
65659;BME280;60181;53.258;6.932;2023-02-19T16:48:23;102564.40;;;14.96;63.83
65659;BME280;60181;53.258;6.932;2023-02-19T16:52:27;102568.64;;;14.94;63.96
65659;BME280;60181;53.258;6.932;2023-02-19T16:56:31;102573.06;;;14.92;64.05
65659;BME280;60181;53.258;6.932;2023-02-19T17:00:35;102577.51;;;14.89;64.20
65659;BME280;60181;53.258;6.932;2023-02-19T17:04:39;102580.81;;;14.89;63.90
65659;BME280;60181;53.258;6.932;2023-02-19T17:08:43;102580.43;;;14.88;63.95
65659;BME280;60181;53.258;6.932;2023-02-19T17:12:47;102579.00;;;14.87;63.98
65659;BME280;60181;53.258;6.932;2023-02-19T17:16:51;102577.22;;;14.86;64.02
65659;BME280;60181;53.258;6.932;2023-02-19T17:21:04;102575.16;;;14.84;64.03
65659;BME280;60181;53.258;6.932;2023-02-19T17:24:59;102573.21;;;14.82;64.04
65659;BME280;60181;53.258;6.932;2023-02-19T17:29:04;102572.14;;;14.81;64.03
65659;BME280;60181;53.258;6.932;2023-02-19T17:33:07;102572.18;;;14.79;64.05
65659;BME280;60181;53.258;6.932;2023-02-19T17:37:11;102571.73;;;14.78;64.02
65659;BME280;60181;53.258;6.932;2023-02-19T17:41:15;102573.58;;;14.77;64.03
65659;BME280;60181;53.258;6.932;2023-02-19T17:45:19;102576.75;;;14.76;64.01
65659;BME280;60181;53.258;6.932;2023-02-19T17:49:23;102578.44;;;14.75;64.02
65659;BME280;60181;53.258;6.932;2023-02-19T17:53:27;102580.05;;;14.74;64.04
65659;BME280;60181;53.258;6.932;2023-02-19T17:57:31;102580.87;;;14.73;64.05
65659;BME280;60181;53.258;6.932;2023-02-19T18:01:35;102581.15;;;14.72;64.05
65659;BME280;60181;53.258;6.932;2023-02-19T18:05:39;102583.91;;;14.71;64.03
65659;BME280;60181;53.258;6.932;2023-02-19T18:09:43;102588.57;;;14.70;64.05
65659;BME280;60181;53.258;6.932;2023-02-19T18:13:47;102589.36;;;14.69;64.06
65659;BME280;60181;53.258;6.932;2023-02-19T18:17:51;102587.34;;;14.68;64.07
65659;BME280;60181;53.258;6.932;2023-02-19T18:21:55;102584.91;;;14.68;64.06
65659;BME280;60181;53.258;6.932;2023-02-19T18:25:59;102581.69;;;14.66;64.07
65659;BME280;60181;53.258;6.932;2023-02-19T18:30:03;102578.47;;;14.66;64.06
65659;BME280;60181;53.258;6.932;2023-02-19T18:34:10;102573.16;;;14.65;64.10
65659;BME280;60181;53.258;6.932;2023-02-19T18:38:11;102570.72;;;14.64;64.06
65659;BME280;60181;53.258;6.932;2023-02-19T18:42:15;102570.06;;;14.63;64.19
65659;BME280;60181;53.258;6.932;2023-02-19T18:46:19;102570.24;;;14.66;63.73
65659;BME280;60181;53.258;6.932;2023-02-19T18:50:23;102569.78;;;14.67;63.91
65659;BME280;60181;53.258;6.932;2023-02-19T18:54:27;102568.18;;;14.66;64.08
65659;BME280;60181;53.258;6.932;2023-02-19T18:58:31;102566.89;;;14.65;64.12
65659;BME280;60181;53.258;6.932;2023-02-19T19:02:35;102566.52;;;14.64;64.12
65659;BME280;60181;53.258;6.932;2023-02-19T19:06:39;102566.92;;;14.63;64.13
65659;BME280;60181;53.258;6.932;2023-02-19T19:10:43;102568.29;;;14.63;64.10
65659;BME280;60181;53.258;6.932;2023-02-19T19:14:47;102567.61;;;14.62;64.06
65659;BME280;60181;53.258;6.932;2023-02-19T19:18:51;102565.03;;;14.62;64.04
65659;BME280;60181;53.258;6.932;2023-02-19T19:22:55;102561.47;;;14.62;64.01
65659;BME280;60181;53.258;6.932;2023-02-19T19:26:58;102558.51;;;14.62;63.99
65659;BME280;60181;53.258;6.932;2023-02-19T19:31:03;102555.30;;;14.62;63.97
65659;BME280;60181;53.258;6.932;2023-02-19T19:35:07;102551.78;;;14.62;63.94
65659;BME280;60181;53.258;6.932;2023-02-19T19:39:11;102545.85;;;14.62;63.93
65659;BME280;60181;53.258;6.932;2023-02-19T19:43:14;102541.31;;;14.62;63.93
65659;BME280;60181;53.258;6.932;2023-02-19T19:47:18;102537.94;;;14.63;63.94
65659;BME280;60181;53.258;6.932;2023-02-19T19:51:22;102534.06;;;14.63;63.94
65659;BME280;60181;53.258;6.932;2023-02-19T19:55:27;102530.92;;;14.63;63.93
65659;BME280;60181;53.258;6.932;2023-02-19T19:59:30;102526.72;;;14.63;63.96
65659;BME280;60181;53.258;6.932;2023-02-19T20:03:36;102522.27;;;14.63;63.93
65659;BME280;60181;53.258;6.932;2023-02-19T20:07:38;102519.13;;;14.63;63.96
65659;BME280;60181;53.258;6.932;2023-02-19T20:11:46;102517.41;;;14.63;63.96
65659;BME280;60181;53.258;6.932;2023-02-19T20:15:46;102516.48;;;14.63;63.95
65659;BME280;60181;53.258;6.932;2023-02-19T20:19:50;102516.00;;;14.63;63.96
65659;BME280;60181;53.258;6.932;2023-02-19T20:23:54;102515.33;;;14.63;63.95
65659;BME280;60181;53.258;6.932;2023-02-19T20:27:58;102510.79;;;14.62;63.97
65659;BME280;60181;53.258;6.932;2023-02-19T20:32:03;102506.26;;;14.62;63.98
65659;BME280;60181;53.258;6.932;2023-02-19T20:36:07;102501.68;;;14.62;63.97
65659;BME280;60181;53.258;6.932;2023-02-19T20:40:11;102495.09;;;14.62;63.98
65659;BME280;60181;53.258;6.932;2023-02-19T20:44:15;102489.40;;;14.62;63.99
65659;BME280;60181;53.258;6.932;2023-02-19T20:48:18;102484.03;;;14.61;64.00
65659;BME280;60181;53.258;6.932;2023-02-19T20:52:22;102478.67;;;14.60;64.41
65659;BME280;60181;53.258;6.932;2023-02-19T20:56:26;102473.11;;;14.61;63.90
65659;BME280;60181;53.258;6.932;2023-02-19T21:00:30;102470.02;;;14.61;63.97
65659;BME280;60181;53.258;6.932;2023-02-19T21:04:36;102467.18;;;14.61;64.03
65659;BME280;60181;53.258;6.932;2023-02-19T21:08:38;102469.65;;;14.61;64.03
65659;BME280;60181;53.258;6.932;2023-02-19T21:12:42;102475.34;;;14.61;64.06
65659;BME280;60181;53.258;6.932;2023-02-19T21:16:46;102483.50;;;14.60;64.05
65659;BME280;60181;53.258;6.932;2023-02-19T21:20:50;102490.50;;;14.60;64.06
65659;BME280;60181;53.258;6.932;2023-02-19T21:24:54;102495.34;;;14.60;64.05
65659;BME280;60181;53.258;6.932;2023-02-19T21:28:58;102497.73;;;14.59;64.05
65659;BME280;60181;53.258;6.932;2023-02-19T21:33:03;102500.52;;;14.59;64.07
65659;BME280;60181;53.258;6.932;2023-02-19T21:37:06;102504.74;;;14.59;64.08
65659;BME280;60181;53.258;6.932;2023-02-19T21:41:10;102506.51;;;14.58;64.09
65659;BME280;60181;53.258;6.932;2023-02-19T21:45:14;102510.95;;;14.58;64.07
65659;BME280;60181;53.258;6.932;2023-02-19T21:49:18;102512.56;;;14.57;64.07
65659;BME280;60181;53.258;6.932;2023-02-19T21:53:22;102513.51;;;14.60;63.44
65659;BME280;60181;53.258;6.932;2023-02-19T21:57:26;102513.13;;;14.55;62.08
65659;BME280;60181;53.258;6.932;2023-02-19T22:01:31;102512.60;;;14.49;62.01
65659;BME280;60181;53.258;6.932;2023-02-19T22:05:34;102512.62;;;14.43;61.87
65659;BME280;60181;53.258;6.932;2023-02-19T22:09:38;102510.22;;;14.37;61.54
65659;BME280;60181;53.258;6.932;2023-02-19T22:13:42;102507.89;;;14.32;61.30
65659;BME280;60181;53.258;6.932;2023-02-19T22:17:46;102504.39;;;14.27;61.10
65659;BME280;60181;53.258;6.932;2023-02-19T22:21:50;102498.82;;;14.24;61.06
65659;BME280;60181;53.258;6.932;2023-02-19T22:25:54;102495.04;;;14.20;60.85